Pickle Lake, Pickle Lake Airport (CYPL)

NamePickle Lake Airport
CityPickle Lake
CountryCanada
ICAOCYPL
IATAYPL
Altitude386 m
CoordinatesGoogle Map
Live Air TrafficLiveATC.net
METARCYPL 231200Z AUTO VRB03KT 9SM OVC039 10/08 A3028 RMK SLP264
2019-08-23 12:00:00 Wind: North (0°) 1.54 m/s - Visibility: 14484.06 m - Temperature: 10 °C - Dew point: 8 °C - Humidity: 87.5% - Pressure: 1025.4 hPa

Sorry, no flights used the airport in this database.